Time;durP1;ratioP1;P1;durP2;ratioP2;P2;SDS_P1;SDS_P2;PMS_P1;PMS_P2;Temp;Humidity;BMP_temperature;BMP_pressure;BME280_temperature;BME280_humidity;BME280_pressure;Samples;Min_cycle;Max_cycle;Signal;HPM_P1;HPM_P2
2023/10/19 00:00:25;;;;;;;20.52;11.05;;;;;;;;;;5075622;28;20150;-72
2023/10/19 00:02:51;;;;;;;18.20;10.63;;;;;;;;;;5076846;28;20118;-71
2023/10/19 00:05:17;;;;;;;18.05;10.63;;;;;;;;;;5073729;28;20127;-72
2023/10/19 00:07:42;;;;;;;17.58;10.50;;;;;;;;;;5073715;28;20103;-73
2023/10/19 00:10:07;;;;;;;18.83;10.15;;;;;;;;;;5063122;28;20028;-73
2023/10/19 00:12:33;;;;;;;19.85;10.48;;;;;;;;;;5078369;28;20020;-71
2023/10/19 00:14:59;;;;;;;18.00;10.27;;;;;;;;;;5076211;28;20032;-72
2023/10/19 00:17:27;;;;;;;18.40;10.10;;;;;;;;;;5077713;28;20585;-73
2023/10/19 00:20:06;;;;;;;18.13;9.88;;;;;;;;;;5076013;28;20056;-71
2023/10/19 00:22:36;;;;;;;19.05;10.40;;;;;;;;;;5073001;28;20080;-72
2023/10/19 00:25:04;;;;;;;21.75;10.50;;;;;;;;;;5061523;28;20048;-74
2023/10/19 00:27:31;;;;;;;14.52;8.60;;;;;;;;;;5075170;28;20043;-71
2023/10/19 00:30:06;;;;;;;19.33;9.35;;;;;;;;;;5075158;28;20074;-72
2023/10/19 00:32:31;;;;;;;15.80;9.05;;;;;;;;;;5077287;28;20028;-72
2023/10/19 00:34:56;;;;;;;16.98;8.25;;;;;;;;;;5074193;28;20353;-72
2023/10/19 00:37:26;;;;;;;17.50;8.67;;;;;;;;;;5061543;28;20032;-72
2023/10/19 00:39:55;;;;;;;17.73;8.75;;;;;;;;;;5054228;28;20301;-71
2023/10/19 00:42:31;;;;;;;16.05;8.65;;;;;;;;;;5057465;28;20024;-71
2023/10/19 00:45:04;;;;;;;17.35;9.07;;;;;;;;;;5068778;28;20033;-73
2023/10/19 00:47:39;;;;;;;17.08;9.10;;;;;;;;;;5053870;28;20478;-71
2023/10/19 00:50:05;;;;;;;17.30;9.07;;;;;;;;;;5055425;28;20040;-69
2023/10/19 00:52:31;;;;;;;18.55;8.73;;;;;;;;;;5055605;28;20037;-70
2023/10/19 00:54:58;;;;;;;14.02;8.40;;;;;;;;;;5051325;28;20055;-69
2023/10/19 00:57:33;;;;;;;18.85;8.60;;;;;;;;;;5050653;28;20033;-68
2023/10/19 01:00:11;;;;;;;16.00;8.68;;;;;;;;;;5053426;28;20883;-68
2023/10/19 01:02:43;;;;;;;15.73;8.15;;;;;;;;;;5056340;28;20365;-69
2023/10/19 01:05:08;;;;;;;16.08;8.27;;;;;;;;;;5052811;28;20381;-67
2023/10/19 01:07:38;;;;;;;14.73;8.13;;;;;;;;;;5053074;28;20032;-70
2023/10/19 01:10:19;;;;;;;14.00;8.38;;;;;;;;;;5051765;28;20029;-69
2023/10/19 01:12:44;;;;;;;13.10;7.82;;;;;;;;;;5053562;28;20155;-69
2023/10/19 01:15:14;;;;;;;14.23;8.27;;;;;;;;;;5055150;28;20111;-68
2023/10/19 01:17:39;;;;;;;;;;;;;;;;;;5053792;28;20273;-69
2023/10/19 01:20:21;;;;;;;12.77;7.27;;;;;;;;;;5052565;28;20452;-68
2023/10/19 01:22:53;;;;;;;15.25;7.68;;;;;;;;;;5054945;28;20377;-69
2023/10/19 01:25:34;;;;;;;15.02;8.02;;;;;;;;;;5057375;28;20033;-69
2023/10/19 01:28:01;;;;;;;13.68;8.13;;;;;;;;;;5060951;28;20029;-69
2023/10/19 01:30:27;;;;;;;15.35;7.75;;;;;;;;;;5050531;28;20036;-69
2023/10/19 01:32:52;;;;;;;13.45;7.00;;;;;;;;;;5055589;28;20037;-69
2023/10/19 01:35:18;;;;;;;16.13;7.72;;;;;;;;;;5052293;28;20029;-69
2023/10/19 01:37:43;;;;;;;14.10;7.32;;;;;;;;;;5056580;28;20032;-71
2023/10/19 01:40:08;;;;;;;14.90;7.97;;;;;;;;;;5071717;28;20080;-70
2023/10/19 01:42:34;;;;;;;13.00;7.82;;;;;;;;;;5072710;28;20111;-69
2023/10/19 01:44:59;;;;;;;15.88;8.13;;;;;;;;;;5076448;28;20051;-70
2023/10/19 01:47:25;;;;;;;18.43;8.20;;;;;;;;;;5072646;28;20067;-69
2023/10/19 01:49:52;;;;;;;14.35;7.78;;;;;;;;;;5066332;28;20646;-69
2023/10/19 01:52:17;;;;;;;14.32;7.47;;;;;;;;;;5073334;28;20020;-69
2023/10/19 01:54:43;;;;;;;20.05;8.90;;;;;;;;;;5075421;28;20063;-68
2023/10/19 01:57:08;;;;;;;15.60;8.30;;;;;;;;;;5076471;28;20037;-69
2023/10/19 01:59:34;;;;;;;14.87;7.77;;;;;;;;;;5079640;28;20031;-71
2023/10/19 02:01:59;;;;;;;13.18;8.10;;;;;;;;;;5077158;28;20291;-67
2023/10/19 02:04:25;;;;;;;13.95;7.72;;;;;;;;;;5076147;28;20036;-69
2023/10/19 02:06:54;;;;;;;14.18;7.75;;;;;;;;;;5081060;28;20055;-69
2023/10/19 02:11:57;;;;;;;17.58;7.93;;;;;;;;;;5077047;28;20024;-68
2023/10/19 02:14:24;;;;;;;13.25;7.18;;;;;;;;;;5075553;28;20036;-68
2023/10/19 02:16:56;;;;;;;14.95;7.38;;;;;;;;;;5063660;28;20105;-71
2023/10/19 02:19:22;;;;;;;18.58;7.40;;;;;;;;;;5078397;28;20317;-72
2023/10/19 02:21:52;;;;;;;14.93;7.20;;;;;;;;;;5077723;28;20473;-69
2023/10/19 02:24:17;;;;;;;12.30;7.10;;;;;;;;;;5083401;28;20039;-69
2023/10/19 02:26:43;;;;;;;13.20;7.13;;;;;;;;;;5082127;28;20080;-68
2023/10/19 02:29:09;;;;;;;12.65;7.30;;;;;;;;;;5079001;28;20028;-69
2023/10/19 02:31:40;;;;;;;14.27;7.25;;;;;;;6.42;nan;100104.50;5077679;28;20024;-69
2023/10/19 02:34:07;;;;;;;13.45;6.75;;;;;;;;;;5079060;28;20032;-69
2023/10/19 02:36:33;;;;;;;12.60;7.30;;;;;;;;;;5076178;28;20025;-69
2023/10/19 02:38:59;;;;;;;12.20;6.88;;;;;;;;;;5076622;28;20060;-70
2023/10/19 02:41:26;;;;;;;14.35;7.10;;;;;;;;;;5075047;28;20070;-68
2023/10/19 02:44:01;;;;;;;12.65;7.28;;;;;;;;;;5080335;28;20035;-69
2023/10/19 02:46:27;;;;;;;12.38;6.50;;;;;;;;;;5079753;28;20033;-69
2023/10/19 02:48:52;;;;;;;12.43;6.82;;;;;;;;;;5076129;28;20020;-68
2023/10/19 02:51:19;;;;;;;13.87;6.63;;;;;;;;;;5074983;28;20029;-68
2023/10/19 02:53:44;;;;;;;13.45;7.22;;;;;;;;;;5075601;28;20276;-68
2023/10/19 02:56:18;;;;;;;12.52;6.35;;;;;;;;;;5076952;28;20111;-69
2023/10/19 02:58:48;;;;;;;12.00;6.65;;;;;;;;;;5078925;28;20035;-69
2023/10/19 03:01:21;;;;;;;14.15;6.82;;;;;;;;;;5077046;28;20111;-70
2023/10/19 03:03:46;;;;;;;12.10;6.95;;;;;;;;;;5075215;28;20470;-69
2023/10/19 03:06:12;;;;;;;17.52;7.30;;;;;;;;;;5077625;28;20047;-70
2023/10/19 03:08:37;;;;;;;11.73;6.55;;;;;;;;;;5075688;28;20094;-68
2023/10/19 03:11:05;;;;;;;14.57;7.20;;;;;;;;;;5077333;28;20020;-70
2023/10/19 03:13:33;;;;;;;11.15;6.60;;;;;;;;;;5073617;28;20076;-69
2023/10/19 03:16:00;;;;;;;13.57;6.47;;;;;;;;;;5078192;28;20031;-69
2023/10/19 03:18:25;;;;;;;11.82;7.07;;;;;;;;;;5075608;28;20030;-69
2023/10/19 03:20:51;;;;;;;11.75;6.72;;;;;;;;;;5075458;28;20553;-66
2023/10/19 03:23:17;;;;;;;14.25;7.03;;;;;;;;;;5078168;28;20052;-70
2023/10/19 03:28:25;;;;;;;13.32;6.60;;;;;;;;;;5077897;28;20037;-69
2023/10/19 03:30:51;;;;;;;13.98;7.40;;;;;;;;;;5076032;28;20028;-69
2023/10/19 03:33:18;;;;;;;15.77;7.00;;;;;;;;;;5075746;28;20030;-69
2023/10/19 03:35:43;;;;;;;14.45;6.82;;;;;;;;;;5079035;28;20268;-68
2023/10/19 03:38:16;;;;;;;11.75;6.68;;;;;;;;;;5079637;28;20020;-69
2023/10/19 03:40:45;;;;;;;15.68;6.82;;;;;;;;;;5060295;28;20032;-70
2023/10/19 03:43:17;;;;;;;13.10;7.40;;;;;;;;;;5075303;28;20038;-69
2023/10/19 03:45:48;;;;;;;12.88;7.07;;;;;;;;;;5074298;28;20032;-68
2023/10/19 03:48:16;;;;;;;13.25;6.63;;;;;;;;;;5059797;28;20126;-69
2023/10/19 03:50:42;;;;;;;14.30;7.00;;;;;;;;;;5076580;28;20024;-70
2023/10/19 03:53:12;;;;;;;15.65;7.53;;;;;;;;;;5075915;28;20186;-71
2023/10/19 03:55:38;;;;;;;12.73;6.93;;;;;;;;;;5064291;28;20024;-72
2023/10/19 03:58:04;;;;;;;15.02;7.20;;;;;;;;;;5074687;28;20161;-72
2023/10/19 04:00:33;;;;;;;15.02;7.93;;;;;;;;;;5074871;28;20027;-72
2023/10/19 04:02:58;;;;;;;16.00;7.47;;;;;;;;;;5075077;28;20032;-71
2023/10/19 04:05:25;;;;;;;17.73;7.78;;;;;;;;;;5073408;28;20032;-73
2023/10/19 04:07:53;;;;;;;14.57;7.03;;;;;;;;;;5091111;28;20035;-71
2023/10/19 04:13:00;;;;;;;12.75;7.18;;;;;;;;;;5077151;28;20032;-69
2023/10/19 04:15:26;;;;;;;15.70;7.53;;;;;;;;;;5061807;28;20028;-69
2023/10/19 04:17:52;;;;;;;13.50;6.75;;;;;;;;;;5074461;28;20031;-67
2023/10/19 04:22:44;;;;;;;13.25;7.55;;;;;;;;;;5077230;28;20513;-69
2023/10/19 04:25:12;;;;;;;15.55;7.35;;;;;;;;;;5061185;28;20028;-69
2023/10/19 04:27:37;;;;;;;12.93;7.15;;;;;;;;;;5076241;28;20032;-69
2023/10/19 04:30:03;;;;;;;20.38;7.35;;;;;;;;;;5072548;28;20029;-69
2023/10/19 04:32:28;;;;;;;18.00;7.32;;;;;;;;;;5076977;28;20028;-69
2023/10/19 04:34:54;;;;;;;23.47;7.70;;;;;;;;;;5076370;28;20028;-69
2023/10/19 04:37:19;;;;;;;23.75;7.43;;;;;;;;;;5074049;28;21010;-69
2023/10/19 04:39:45;;;;;;;25.42;7.82;;;;;;;;;;5072158;28;20043;-69
2023/10/19 04:42:10;;;;;;;23.67;7.32;;;;;;;;;;5066737;28;20025;-73
2023/10/19 04:44:35;;;;;;;21.23;8.57;;;;;;;;;;5074494;28;20166;-71
2023/10/19 04:47:01;;;;;;;16.13;6.80;;;;;;;;;;5073528;28;20650;-69
2023/10/19 04:49:26;;;;;;;18.25;7.53;;;;;;;;;;5080471;28;20028;-72
2023/10/19 04:51:51;;;;;;;23.53;7.93;;;;;;;;;;5079720;28;20355;-72
2023/10/19 04:54:17;;;;;;;16.97;7.00;;;;;;;;;;5071347;28;20288;-71
2023/10/19 04:56:42;;;;;;;13.10;7.07;;;;;;;;;;5075078;28;20763;-71
2023/10/19 04:59:07;;;;;;;16.55;7.72;;;;;;;;;;5077104;28;20035;-71
2023/10/19 05:01:33;;;;;;;15.30;7.50;;;;;;;;;;5071821;28;20083;-71
2023/10/19 05:03:59;;;;;;;14.50;8.00;;;;;;;;;;5074042;28;20115;-71
2023/10/19 05:06:24;;;;;;;15.52;7.78;;;;;;;;;;5074853;28;20080;-72
2023/10/19 05:08:53;;;;;;;13.63;7.13;;;;;;;;;;5063861;28;20058;-73
2023/10/19 05:11:18;;;;;;;14.80;7.32;;;;;;;;;;5076227;28;20299;-67
2023/10/19 05:13:43;;;;;;;13.13;7.67;;;;;;;;;;5076242;28;20027;-70
2023/10/19 05:16:08;;;;;;;16.73;7.23;;;;;;;;;;5073838;28;20360;-69
2023/10/19 05:18:34;;;;;;;13.50;7.72;;;;;;;;;;5074766;28;20725;-68
2023/10/19 05:21:00;;;;;;;13.43;7.93;;;;;;;;;;5069744;28;20398;-74
2023/10/19 05:23:26;;;;;;;17.20;8.18;;;;;;;;;;5056211;28;20028;-72
2023/10/19 05:26:00;;;;;;;13.60;7.43;;;;;;;;;;5075923;28;20024;-69
2023/10/19 05:28:26;;;;;;;20.17;7.80;;;;;;;;;;5073334;28;20112;-67
2023/10/19 05:30:51;;;;;;;13.68;7.72;;;;;;;;;;5078193;28;20110;-69
2023/10/19 05:33:20;;;;;;;16.13;8.63;;;;;;;;;;5078548;28;20077;-69
2023/10/19 05:35:45;;;;;;;18.42;8.80;;;;;;;;;;5078142;28;20094;-70
2023/10/19 05:38:11;;;;;;;15.73;7.72;;;;;;;;;;5076594;28;20028;-69
2023/10/19 05:40:36;;;;;;;20.90;9.30;;;;;;;;;;5076899;28;20088;-69
2023/10/19 05:43:01;;;;;;;35.77;17.63;;;;;;;;;;5076933;28;20295;-70
2023/10/19 05:45:28;;;;;;;29.13;17.40;;;;;;;;;;5062474;28;20424;-72
2023/10/19 05:47:53;;;;;;;21.60;10.85;;;;;;;;;;5079291;28;20019;-69
2023/10/19 05:50:19;;;;;;;19.27;10.30;;;;;;;;;;5078356;28;20588;-71
2023/10/19 05:52:44;;;;;;;14.88;9.10;;;;;;;;;;5076043;28;20092;-68
2023/10/19 05:55:10;;;;;;;18.10;9.93;;;;;;;;;;5075270;28;20036;-69
2023/10/19 05:57:39;;;;;;;18.13;9.73;;;;;;;;;;5076623;28;20075;-71
2023/10/19 06:00:06;;;;;;;21.88;10.10;;;;;;;;;;5066266;28;20559;-72
2023/10/19 06:02:31;;;;;;;20.15;9.52;;;;;;;;;;5092051;28;20123;-73
2023/10/19 06:04:57;;;;;;;19.08;9.48;;;;;;;;;;5073431;28;20119;-72
2023/10/19 06:07:24;;;;;;;18.77;9.40;;;;;;;;;;5079583;28;20084;-73
2023/10/19 06:09:50;;;;;;;17.63;8.98;;;;;;;;;;5079160;28;20288;-74
2023/10/19 06:12:15;;;;;;;13.13;8.53;;;;;;;;;;5079946;28;20028;-73
2023/10/19 06:14:40;;;;;;;14.77;9.07;;;;;;;;;;5077981;28;20083;-70
2023/10/19 06:17:05;;;;;;;16.43;8.67;;;;;;;;;;5078693;28;20762;-69
2023/10/19 06:19:31;;;;;;;16.38;8.27;;;;;;;;;;5077880;28;20389;-68
2023/10/19 06:21:56;;;;;;;15.40;8.23;;;;;;;;;;5076190;28;20028;-69
2023/10/19 06:24:21;;;;;;;12.52;8.18;;;;;;;;;;5081283;28;20053;-69
2023/10/19 06:26:47;;;;;;;13.60;8.60;;;;;;;;;;5075837;28;20032;-69
2023/10/19 06:29:12;;;;;;;19.90;9.20;;;;;;;;;;5068434;28;20039;-70
2023/10/19 06:31:37;;;;;;;19.43;8.47;;;;;;;;;;5091663;28;20280;-70
2023/10/19 06:34:02;;;;;;;16.00;8.80;;;;;;;;;;5079653;28;20283;-70
2023/10/19 06:36:29;;;;;;;16.23;8.20;;;;;;;;;;5076278;28;20098;-70
2023/10/19 06:38:54;;;;;;;14.40;7.88;;;;;;;;;;5081060;28;20794;-73
2023/10/19 06:41:20;;;;;;;13.38;8.20;;;;;;;;;;5073805;28;20028;-74
2023/10/19 06:43:46;;;;;;;10.70;6.93;;;;;;;;;;5079472;28;20384;-70
2023/10/19 06:46:12;;;;;;;13.25;6.97;;;;;;;;;;5077017;28;20042;-69
2023/10/19 06:48:37;;;;;;;11.98;6.82;;;;;;;;;;5061135;28;20028;-71
2023/10/19 06:51:02;;;;;;;13.02;6.78;;;;;;;;;;5078971;28;20052;-70
2023/10/19 06:53:28;;;;;;;10.07;6.68;;;;;;;;;;5081677;28;20127;-73
2023/10/19 06:55:54;;;;;;;15.60;7.97;;;;;;;;;;5077540;28;20032;-72
2023/10/19 06:58:19;;;;;;;16.48;9.80;;;;;;;;;;5073899;28;20031;-72
2023/10/19 07:00:45;;;;;;;11.77;7.93;;;;;;;;;;5075786;28;20028;-73
2023/10/19 07:03:11;;;;;;;13.68;7.70;;;;;;;;;;5078154;28;20364;-73
2023/10/19 07:05:36;;;;;;;11.93;7.28;;;;;;;;;;5077896;28;20028;-73
2023/10/19 07:08:02;;;;;;;11.07;7.18;;;;;;;;;;5078140;28;20020;-73
2023/10/19 07:10:28;;;;;;;12.10;7.53;;;;;;;;;;5061342;28;20032;-73
2023/10/19 07:12:54;;;;;;;11.75;7.50;;;;;;;;;;5079541;28;20560;-73
2023/10/19 07:15:22;;;;;;;14.20;7.82;;;;;;;;;;5077320;28;20103;-74
2023/10/19 07:17:47;;;;;;;11.95;7.78;;;;;;;;;;5068691;28;20036;-74
2023/10/19 07:23:19;;;;;;;13.70;7.38;;;;;;;;;;5062414;28;20035;-73
2023/10/19 07:25:45;;;;;;;12.93;8.23;;;;;;;;;;5076792;28;20032;-73
2023/10/19 07:28:12;;;;;;;13.70;7.72;;;;;;;;;;5075456;28;20037;-73
2023/10/19 07:30:37;;;;;;;13.00;7.72;;;;;;;;;;5077917;28;20055;-71
2023/10/19 07:33:04;;;;;;;13.93;7.95;;;;;;;;;;5076734;28;20054;-72
2023/10/19 07:35:33;;;;;;;15.10;7.90;;;;;;;;;;5078206;28;20063;-71
2023/10/19 07:37:59;;;;;;;19.08;8.88;;;;;;;;;;5073154;28;20024;-71
2023/10/19 07:40:24;;;;;;;12.63;7.90;;;;;;;;;;5074176;28;20062;-71
2023/10/19 07:42:51;;;;;;;14.57;8.00;;;;;;;;;;5079547;28;20281;-72
2023/10/19 07:45:17;;;;;;;11.32;7.88;;;;;;;;;;5059336;28;20032;-73
2023/10/19 07:47:43;;;;;;;12.70;7.88;;;;;;;;;;5074190;28;20043;-73
2023/10/19 07:50:17;;;;;;;12.15;7.30;;;;;;;;;;5078994;28;20530;-70
2023/10/19 07:52:48;;;;;;;12.85;7.18;;;;;;;;;;5058719;28;20111;-71
2023/10/19 07:55:14;;;;;;;12.80;7.25;;;;;;;;;;5073063;28;20038;-70
2023/10/19 07:57:40;;;;;;;15.52;8.45;;;;;;;;;;5066420;28;20441;-71
2023/10/19 08:00:08;;;;;;;12.77;8.20;;;;;;;;;;5061461;28;20032;-71
2023/10/19 08:02:34;;;;;;;14.45;8.63;;;;;;;;;;5076232;28;20028;-73
2023/10/19 08:04:59;;;;;;;17.92;8.63;;;;;;;;;;5074043;28;20024;-73
2023/10/19 08:07:26;;;;;;;12.90;7.78;;;;;;;;;;5079296;28;20876;-73
2023/10/19 08:09:51;;;;;;;12.60;8.23;;;;;;;;;;5076075;28;20028;-70
2023/10/19 08:12:17;;;;;;;13.95;7.82;;;;;;;;;;5075761;28;20028;-71
2023/10/19 08:14:42;;;;;;;12.90;7.30;;;;;;;;;;5073874;28;20035;-71
2023/10/19 08:17:08;;;;;;;10.40;7.15;;;;;;;;;;5074331;28;20957;-71
2023/10/19 08:19:34;;;;;;;11.95;7.35;;;;;;;;;;5060430;28;20024;-71
2023/10/19 08:21:59;;;;;;;11.63;7.47;;;;;;;;;;5073684;28;20035;-73
2023/10/19 08:24:24;;;;;;;10.75;6.95;;;;;;;;;;5089285;28;20036;-72
2023/10/19 08:26:50;;;;;;;14.70;7.37;;;;;;;;;;5074913;28;20379;-72
2023/10/19 08:29:16;;;;;;;9.48;6.22;;;;;;;;;;5075997;28;20281;-71
2023/10/19 08:31:44;;;;;;;12.23;6.13;;;;;;;;;;5073114;28;20023;-71
2023/10/19 08:34:11;;;;;;;13.18;6.15;;;;;;;11.82;nan;99924.19;5072249;28;20028;-72
2023/10/19 08:36:37;;;;;;;9.93;6.80;;;;;;;;;;5071234;28;20036;-73
2023/10/19 08:39:05;;;;;;;11.35;6.13;;;;;;;;;;5076544;28;20052;-73
2023/10/19 08:41:31;;;;;;;12.13;6.28;;;;;;;;;;5076790;28;20490;-75
2023/10/19 08:43:57;;;;;;;10.65;6.25;;;;;;;;;;5059882;28;20122;-73
2023/10/19 08:46:24;;;;;;;10.52;6.15;;;;;;;;;;5076219;28;20161;-74
2023/10/19 08:48:50;;;;;;;9.40;6.10;;;;;;;;;;5060317;28;20032;-74
2023/10/19 08:51:16;;;;;;;9.15;5.35;;;;;;;;;;5065329;28;20028;-75
2023/10/19 08:53:44;;;;;;;10.18;5.35;;;;;;;;;;5075022;28;20036;-76
2023/10/19 08:56:09;;;;;;;9.00;5.30;;;;;;;;;;5074723;28;20028;-75
2023/10/19 08:58:35;;;;;;;7.88;5.15;;;;;;;;;;5078301;28;20038;-75
2023/10/19 09:01:06;;;;;;;6.90;4.57;;;;;;;;;;5073762;28;20486;-72
2023/10/19 09:03:31;;;;;;;11.63;4.50;;;;;;;;;;5062451;28;20033;-72
2023/10/19 09:05:57;;;;;;;6.80;4.72;;;;;;;;;;5063073;28;20024;-72
2023/10/19 09:08:22;;;;;;;7.68;3.90;;;;;;;;;;5073705;28;20371;-72
2023/10/19 09:10:49;;;;;;;5.83;3.80;;;;;;;;;;5076750;28;20054;-69
2023/10/19 09:13:18;;;;;;;8.05;3.63;;;;;;;;;;5051441;28;20411;-74
2023/10/19 09:15:43;;;;;;;5.32;3.60;;;;;;;;;;5072618;28;20509;-74
2023/10/19 09:18:14;;;;;;;4.80;3.37;;;;;;;;;;5075458;28;20028;-76
2023/10/19 09:20:41;;;;;;;7.35;4.00;;;;;;;;;;5056458;28;20277;-75
2023/10/19 09:23:07;;;;;;;5.95;3.40;;;;;;;;;;5062252;28;20358;-75
2023/10/19 09:25:32;;;;;;;5.47;3.25;;;;;;;;;;5060559;28;20032;-74
2023/10/19 09:27:58;;;;;;;4.55;3.38;;;;;;;;;;5088166;28;20036;-74
2023/10/19 09:30:24;;;;;;;4.50;3.27;;;;;;;;;;5074669;28;20328;-73
2023/10/19 09:32:50;;;;;;;6.05;3.70;;;;;;;;;;5058942;28;20273;-75
2023/10/19 09:35:19;;;;;;;6.13;3.45;;;;;;;;;;5072303;28;20107;-76
2023/10/19 09:37:45;;;;;;;5.88;3.28;;;;;;;;;;5073915;28;20497;-70
2023/10/19 09:40:12;;;;;;;6.22;3.38;;;;;;;;;;5071812;28;20044;-72
2023/10/19 09:42:45;;;;;;;4.38;3.13;;;;;;;;;;5074668;28;20041;-75
2023/10/19 09:45:11;;;;;;;4.00;2.92;;;;;;;;;;5062021;28;20552;-73
2023/10/19 09:47:39;;;;;;;5.07;3.00;;;;;;;;;;5075019;28;20111;-75
2023/10/19 09:50:06;;;;;;;3.63;3.00;;;;;;;;;;5072663;28;20121;-74
2023/10/19 09:52:32;;;;;;;5.50;3.10;;;;;;;;;;5072089;28;20486;-74
2023/10/19 09:55:00;;;;;;;9.55;3.38;;;;;;;;;;5063151;28;20314;-74
2023/10/19 09:57:34;;;;;;;4.57;3.00;;;;;;;;;;5056205;28;20024;-71
2023/10/19 10:00:08;;;;;;;4.88;3.10;;;;;;;;;;5073835;28;20505;-71
2023/10/19 10:02:33;;;;;;;4.78;3.03;;;;;;;;;;5073885;28;20036;-74
2023/10/19 10:04:59;;;;;;;7.30;2.78;;;;;;;;;;5074304;28;20035;-72
2023/10/19 10:07:25;;;;;;;5.32;2.90;;;;;;;;;;5073319;28;20039;-73
2023/10/19 10:09:50;;;;;;;6.65;3.08;;;;;;;;;;5072928;28;20036;-73
2023/10/19 10:12:21;;;;;;;5.85;2.90;;;;;;;;;;5055834;28;20032;-74
2023/10/19 10:15:16;;;;;;;4.72;2.90;;;;;;;;;;5086131;28;20028;-74
2023/10/19 10:17:41;;;;;;;4.13;3.08;;;;;;;;;;5055579;28;20101;-75
2023/10/19 10:20:18;;;;;;;8.23;3.08;;;;;;;;;;5080165;28;20095;-75
2023/10/19 10:22:44;;;;;;;6.28;3.08;;;;;;;;;;5079591;28;20710;-75
2023/10/19 10:25:28;;;;;;;4.45;2.67;;;;;;;;;;5076729;28;20052;-75
2023/10/19 10:27:54;;;;;;;4.10;2.60;;;;;;;;;;5078269;28;20036;-76
2023/10/19 10:30:20;;;;;;;4.68;2.80;;;;;;;;;;5077866;28;20082;-74
2023/10/19 10:32:56;;;;;;;7.95;2.95;;;;;;;;;;5078246;28;20035;-72
2023/10/19 10:35:36;;;;;;;4.13;2.55;;;;;;;;;;5075140;28;20032;-76
2023/10/19 10:38:02;;;;;;;5.63;2.83;;;;;;;;;;5060626;28;20127;-75
2023/10/19 10:40:28;;;;;;;6.13;2.80;;;;;;;;;;5077878;28;20033;-76
2023/10/19 10:43:06;;;;;;;4.90;2.85;;;;;;;;;;5077335;28;20034;-76
2023/10/19 10:45:31;;;;;;;9.57;2.88;;;;;;;;;;5073711;28;20029;-76
2023/10/19 10:47:56;;;;;;;4.83;2.60;;;;;;;;;;5076049;28;20042;-77
2023/10/19 10:50:23;;;;;;;5.03;2.85;;;;;;;;;;5076256;28;20759;-76
2023/10/19 10:52:49;;;;;;;3.88;2.65;;;;;;;;;;5076634;28;20020;-77
2023/10/19 10:55:14;;;;;;;8.02;2.80;;;;;;;;;;5075352;28;20036;-76
2023/10/19 10:57:40;;;;;;;5.75;2.78;;;;;;;;;;5072889;28;20756;-76
2023/10/19 11:00:25;;;;;;;5.40;2.28;;;;;;;;;;5073355;28;20032;-77
2023/10/19 11:03:07;;;;;;;6.15;2.90;;;;;;;;;;5064814;28;20044;-69
2023/10/19 11:05:34;;;;;;;5.78;2.70;;;;;;;;;;5060358;28;20068;-78
2023/10/19 11:08:03;;;;;;;6.47;2.92;;;;;;;;;;5074510;28;20381;-76
2023/10/19 11:10:29;;;;;;;4.85;2.70;;;;;;;;;;5073869;28;20542;-76
2023/10/19 11:13:01;;;;;;;9.48;3.08;;;;;;;;;;5075477;28;20115;-76
2023/10/19 11:15:27;;;;;;;6.88;2.92;;;;;;;;;;5078090;28;20024;-74
2023/10/19 11:17:52;;;;;;;8.90;3.15;;;;;;;;;;5075775;28;20027;-72
2023/10/19 11:20:22;;;;;;;4.83;3.33;;;;;;;;;;5075845;28;20077;-76
2023/10/19 11:22:51;;;;;;;4.72;3.00;;;;;;;;;;5074707;28;20288;-75
2023/10/19 11:25:16;;;;;;;;;;;;;;;;;;5074898;28;20052;-76
2023/10/19 11:27:41;;;;;;;4.97;3.00;;;;;;;;;;5076856;28;19973;-76
2023/10/19 11:30:07;;;;;;;4.73;2.90;;;;;;;;;;5075363;28;20690;-75
2023/10/19 11:32:38;;;;;;;4.07;2.70;;;;;;;;;;5071562;28;20265;-75
2023/10/19 11:35:03;;;;;;;3.08;2.60;;;;;;;;;;5059870;28;20036;-75
2023/10/19 11:37:29;;;;;;;6.70;3.03;;;;;;;;;;5076039;28;20016;-77
2023/10/19 11:39:54;;;;;;;8.90;2.65;;;;;;;;;;5072260;28;20057;-76
2023/10/19 11:42:19;;;;;;;3.73;2.57;;;;;;;18.99;nan;99597.56;5058918;28;20021;-77
2023/10/19 11:44:45;;;;;;;4.88;2.78;;;;;;;;;;5060824;28;20166;-70
2023/10/19 11:47:11;;;;;;;4.50;3.00;;;;;;;19.16;nan;99576.38;5072539;28;20467;-70
2023/10/19 11:49:37;;;;;;;7.88;2.92;;;;;;;19.30;nan;99585.09;5073751;28;20039;-71
2023/10/19 11:52:07;;;;;;;3.53;2.70;;;;;;;19.38;nan;99594.25;5077882;28;20012;-70
2023/10/19 11:54:33;;;;;;;;;;;;;;;19.48;nan;99603.91;5079285;28;20024;-68
2023/10/19 11:56:59;;;;;;;4.85;2.45;;;;;;;19.49;nan;99643.69;5077002;28;19912;-70
2023/10/19 11:59:26;;;;;;;7.03;2.72;;;;;;;19.59;nan;99578.56;5059591;28;20070;-76
2023/10/19 12:01:51;;;;;;;4.57;2.47;;;;;;;;;;5071232;28;20173;-77
2023/10/19 12:04:16;;;;;;;4.50;2.65;;;;;;;19.75;nan;99625.19;5073660;28;20492;-74
2023/10/19 12:06:42;;;;;;;7.13;2.70;;;;;;;19.83;nan;99580.91;5075059;28;20036;-73
2023/10/19 12:09:17;;;;;;;5.55;2.75;;;;;;;;;;5075915;28;20036;-73
2023/10/19 12:11:44;;;;;;;4.90;2.50;;;;;;;19.94;nan;99622.31;5075769;28;20012;-74
2023/10/19 12:14:14;;;;;;;8.40;2.85;;;;;;;19.93;nan;99561.94;5074767;28;20032;-72
2023/10/19 12:16:40;;;;;;;6.00;2.55;;;;;;;19.98;nan;99558.34;5057613;28;20034;-76
2023/10/19 12:19:05;;;;;;;6.80;2.90;;;;;;;;;;5076344;28;20025;-76
2023/10/19 12:21:31;;;;;;;7.55;2.78;;;;;;;19.97;nan;99578.94;5077126;28;20051;-79
2023/10/19 12:23:59;;;;;;;4.07;2.50;;;;;;;19.89;nan;99613.63;5073979;28;20021;-71
2023/10/19 12:26:25;;;;;;;3.80;2.90;;;;;;;19.88;nan;99554.06;5065091;28;20025;-72
2023/10/19 12:28:50;;;;;;;4.78;2.90;;;;;;;19.84;nan;99568.34;5074184;28;20021;-76
2023/10/19 12:31:18;;;;;;;4.13;2.80;;;;;;;19.89;nan;99536.13;5074826;28;20032;-75
2023/10/19 12:33:44;;;;;;;5.13;2.92;;;;;;;19.93;nan;99610.03;5064554;28;20070;-74
2023/10/19 12:38:47;;;;;;;5.18;3.83;;;;;;;;;;5079141;28;20044;-75
2023/10/19 12:41:14;;;;;;;6.80;4.57;;;;;;;20.19;nan;99519.28;5076402;28;20477;-77
2023/10/19 12:43:39;;;;;;;7.57;4.32;;;;;;;;;;5080586;28;20340;-74
2023/10/19 12:46:08;;;;;;;8.00;5.22;;;;;;;20.34;nan;99510.03;5061176;28;20578;-72
2023/10/19 12:48:34;;;;;;;7.68;4.65;;;;;;;20.47;nan;99543.09;5066980;28;20050;-71
2023/10/19 12:51:01;;;;;;;7.03;4.30;;;;;;;;;;5073512;28;20581;-70
2023/10/19 12:53:27;;;;;;;5.28;3.50;;;;;;;20.39;nan;99519.78;5064460;28;20031;-73
2023/10/19 12:55:53;;;;;;;5.20;3.47;;;;;;;20.31;nan;99480.47;5073075;28;20385;-72
2023/10/19 12:58:19;;;;;;;6.82;3.60;;;;;;;;;;5074126;28;20032;-71
2023/10/19 13:00:46;;;;;;;8.20;4.18;;;;;;;20.57;nan;99513.41;5072366;28;20033;-71
2023/10/19 13:03:15;;;;;;;8.10;4.20;;;;;;;20.61;nan;99516.22;5072858;28;20024;-75
2023/10/19 13:05:43;;;;;;;6.85;4.10;;;;;;;20.62;nan;99527.75;5072884;28;20136;-75
2023/10/19 13:08:15;;;;;;;5.63;4.03;;;;;;;20.63;nan;99519.38;5056949;28;20031;-73
2023/10/19 13:10:43;;;;;;;8.80;5.07;;;;;;;20.65;nan;99517.19;5073570;28;20541;-73
2023/10/19 13:13:14;;;;;;;8.45;5.47;;;;;;;20.66;nan;99480.50;5075266;28;20036;-75
2023/10/19 13:15:42;;;;;;;8.68;5.65;;;;;;;20.67;nan;99504.28;5075003;28;20025;-70
2023/10/19 13:18:09;;;;;;;10.65;5.50;;;;;;;20.70;nan;99519.69;5072106;28;20528;-70
2023/10/19 13:20:43;;;;;;;7.57;4.65;;;;;;;20.65;nan;99501.13;5059496;28;20085;-77
2023/10/19 13:23:15;;;;;;;8.63;4.78;;;;;;;20.64;nan;99490.75;5076772;28;20021;-78
2023/10/19 13:25:41;;;;;;;6.05;3.95;;;;;;;;;;5060509;28;20038;-77
2023/10/19 13:28:12;;;;;;;5.93;3.50;;;;;;;20.53;nan;99474.19;5071945;28;20027;-77
2023/10/19 13:30:42;;;;;;;7.45;2.97;;;;;;;20.55;nan;99450.59;5078387;28;20133;-77
2023/10/19 13:33:09;;;;;;;4.97;3.10;;;;;;;20.50;nan;99451.53;5072112;28;20108;-71
2023/10/19 13:35:37;;;;;;;4.50;3.00;;;;;;;20.53;nan;99469.63;5073750;28;20043;-70
2023/10/19 13:38:04;;;;;;;5.35;2.90;;;;;;;20.63;nan;99467.78;5075286;28;20073;-71
2023/10/19 13:40:32;;;;;;;6.43;3.00;;;;;;;20.72;nan;99500.69;5073817;28;20035;-73
2023/10/19 13:42:59;;;;;;;8.45;3.35;;;;;;;20.74;nan;99501.16;5074344;28;20031;-75
2023/10/19 13:45:25;;;;;;;6.97;2.83;;;;;;;20.77;nan;99492.50;5073223;28;20371;-72
2023/10/19 13:47:54;;;;;;;5.38;2.78;;;;;;;20.73;nan;99495.00;5074983;28;20103;-75
2023/10/19 13:50:23;;;;;;;;;;;;;;;20.70;nan;99468.09;5077866;28;20085;-75
2023/10/19 13:53:00;;;;;;;7.15;3.10;;;;;;;20.70;nan;99446.69;5077793;28;19916;-76
2023/10/19 13:55:29;;;;;;;6.20;3.00;;;;;;;20.71;nan;99488.38;5062257;28;20089;-75
2023/10/19 13:57:58;;;;;;;4.55;3.05;;;;;;;20.69;nan;99447.81;5081828;28;20543;-77
2023/10/19 14:03:05;;;;;;;3.63;2.50;;;;;;;20.63;nan;99446.38;5079157;28;20185;-76
2023/10/19 14:05:36;;;;;;;4.82;2.40;;;;;;;20.60;nan;99431.75;5075686;28;20489;-77
2023/10/19 14:08:03;;;;;;;4.60;2.72;;;;;;;20.57;nan;99433.16;5078397;28;20016;-75
2023/10/19 14:10:29;;;;;;;6.35;2.97;;;;;;;20.62;nan;99463.53;5061391;28;20034;-75
2023/10/19 14:12:55;;;;;;;4.45;2.63;;;;;;;20.56;nan;99428.91;5061491;28;20465;-74
2023/10/19 14:15:20;;;;;;;6.68;2.97;;;;;;;20.45;nan;99424.97;5092740;27;20083;-75
2023/10/19 14:17:48;;;;;;;4.88;2.65;;;;;;;20.45;nan;99462.41;5061205;28;20023;-74
2023/10/19 14:20:14;;;;;;;4.78;2.70;;;;;;;20.37;nan;99473.84;5062692;28;20039;-75